• Join FlightAware (Why Join?)
  • Login
  • US Flag 
Gobble Gobble! 
06:10AM EST


 

Airport Tracker/Info


-or-


 

Live Flight TrackerFlight Track Log ✈ N5251Z ✈ 06-May-2013 ✈ KYIP - KYIP

Flight Track Log - Related Links

Times and Time Zones

All times are in EDT time to prevent confusion due to time zone crossing. See the N5251Z flight status page for this flight to view local times or setup timezone preferences in your user account.

Time Position Orientation Groundspeed Altitude Reporting Facility
EDT Latitude Longitude Course Direction KTS MPH feet Rate Location/Type
09:01AM 42.2714 -83.5661 347° North 82 94 2,600  Level Cleveland Center
09:02AM 42.2600 -83.5992 245° Southwest 111 128 3,000 180 Climbing Cleveland Center
09:04AM 42.2467 -83.6378 245° Southwest 108 124 3,000  Level Cleveland Center
09:05AM 42.2331 -83.6736 243° Southwest 110 127 3,000  Level Cleveland Center
09:06AM 42.2393 -83.5310 347° North  Level Estimated
09:07AM 42.2449 -83.5327 347° North  Level FlightAware Approximate
09:07AM 42.2331 -83.6581 90° East  Level FlightAware Approximate
09:10AM 42.2042 -83.8881 154° Southeast 114 131 3,000  Level Cleveland Center
09:11AM 42.2011 -83.9272 264° West 112 129 3,000  Level Cleveland Center
09:13AM 42.1764 -83.9819 239° Southwest 104 120 3,000  Level Cleveland Center
09:14AM 42.2358 -83.6036 154° Southeast  Level Estimated
09:14AM 42.1472 -83.9833 182° South 101 116 3,000  Level Cleveland Center
09:15AM 42.2361 -83.5958 154° Southeast  Level Estimated
09:15AM 42.1333 -83.9600 129° Southeast 98 113 3,000  Level Cleveland Center
09:17AM 42.1367 -83.9463 71° East  Level Estimated
09:18AM 42.1633 -83.8581 71° East 96 110 2,700  Level Cleveland Center
09:19AM 42.1786 -83.8308 53° Northeast 95 109 2,100 -600 Descending Cleveland Center
09:20AM 42.1897 -83.8061 59° Northeast 83 96 1,500 -420 Descending Cleveland Center
09:21AM 42.2050 -83.7817 50° Northeast 80 92 1,300 -120 Descending Cleveland Center
09:22AM 42.2206 -83.7517 55° Northeast 85 98 1,300 420 Level Cleveland Center
09:24AM 42.2647 -83.7425 North 94 108 2,700 540 Climbing Cleveland Center
09:25AM 42.2919 -83.7328 15° North 101 116 3,000 60 Climbing Cleveland Center
09:27AM 42.3347 -83.6956 33° Northeast 98 113 3,000  Level Cleveland Center
09:28AM 42.3522 -83.6656 52° Northeast 95 109 3,000  Level Cleveland Center
09:30AM 42.3706 -83.6017 69° East 91 105 3,000  Level Cleveland Center
09:31AM 42.3544 -83.5756 130° Southeast 98 113 3,000 -240 Level Cleveland Center
09:32AM 42.3319 -83.5606 154° Southeast 86 99 2,600 -360 Descending Cleveland Center
09:34AM 42.2847 -83.5386 161° South 92 106 2,000 -300 Descending Cleveland Center